Time;durP1;ratioP1;P1;durP2;ratioP2;P2;SDS_P1;SDS_P2;PMS_P1;PMS_P2;Temp;Humidity;BMP_temperature;BMP_pressure;BME280_temperature;BME280_humidity;BME280_pressure;Samples;Min_cycle;Max_cycle;Signal;HPM_P1;HPM_P2
2021/12/04 00:00:49;;;;;;;80.47;26.27;;;5.10;99.90;;;;;;4844560;29;20058;-89
2021/12/04 00:03:15;;;;;;;75.82;24.73;;;5.20;99.90;;;;;;4844374;29;20046;-88
2021/12/04 00:05:48;;;;;;;84.63;27.08;;;5.20;99.90;;;;;;4844624;29;20054;-89
2021/12/04 00:08:14;;;;;;;83.97;25.88;;;5.20;99.90;;;;;;4844445;29;20483;-87
2021/12/04 00:10:40;;;;;;;97.35;30.42;;;5.10;99.90;;;;;;4844631;29;20083;-88
2021/12/04 00:13:05;;;;;;;95.50;27.70;;;5.10;99.90;;;;;;4844332;29;20057;-89
2021/12/04 00:15:31;;;;;;;93.72;30.25;;;5.20;99.90;;;;;;4844025;29;20502;-89
2021/12/04 00:17:59;;;;;;;86.28;27.92;;;5.10;99.90;;;;;;4844121;29;20110;-89
2021/12/04 00:20:27;;;;;;;85.75;27.30;;;5.20;99.90;;;;;;4844179;29;20050;-88
2021/12/04 00:22:56;;;;;;;85.28;28.13;;;5.10;99.90;;;;;;4844202;29;20383;-88
2021/12/04 00:25:22;;;;;;;81.95;26.85;;;5.10;99.90;;;;;;4844424;29;20046;-89
2021/12/04 00:27:47;;;;;;;100.35;28.52;;;5.10;99.90;;;;;;4843978;29;20393;-89
2021/12/04 00:30:13;;;;;;;94.15;30.88;;;5.10;99.90;;;;;;4843498;29;20088;-89
2021/12/04 00:32:42;;;;;;;96.65;30.15;;;5.10;99.90;;;;;;4843920;29;20057;-89
2021/12/04 00:35:13;;;;;;;96.53;29.58;;;5.10;99.90;;;;;;4843953;29;20122;-89
2021/12/04 00:51:25;;;;;;;98.72;31.30;;;5.10;99.90;;;;;;4809289;29;20141;-89
2021/12/04 00:53:54;;;;;;;96.13;30.98;;;5.10;99.90;;;;;;4835708;29;20150;-89
2021/12/04 00:56:21;;;;;;;103.15;33.10;;;5.10;99.90;;;;;;4843831;29;20057;-90
2021/12/04 00:58:46;;;;;;;122.88;36.78;;;5.10;99.90;;;;;;4843416;29;20062;-90
2021/12/04 01:01:18;;;;;;;96.20;32.58;;;5.10;99.90;;;;;;4843189;29;20045;-90
2021/12/04 01:03:45;;;;;;;117.40;36.03;;;5.10;99.90;;;;;;4843309;29;20045;-90
2021/12/04 01:06:10;;;;;;;100.20;30.52;;;5.00;99.90;;;;;;4843482;29;20041;-90
2021/12/04 01:08:36;;;;;;;111.40;32.65;;;5.00;99.90;;;;;;4843387;29;20455;-90
2021/12/04 01:11:02;;;;;;;108.47;33.53;;;5.00;99.90;;;;;;4843403;29;20050;-90
2021/12/04 01:13:29;;;;;;;115.68;34.35;;;5.10;99.90;;;;;;4843159;29;20068;-89
2021/12/04 01:15:55;;;;;;;131.10;36.97;;;5.00;99.90;;;;;;4843103;29;20130;-89
2021/12/04 01:18:21;;;;;;;130.85;34.70;;;5.00;99.90;;;;;;4843314;29;20137;-90
2021/12/04 01:20:46;;;;;;;121.38;32.95;;;5.00;99.90;;;;;;4843072;29;20050;-90
2021/12/04 01:23:12;;;;;;;122.10;34.30;;;5.00;99.90;;;;;;4843375;29;20050;-91
2021/12/04 01:25:39;;;;;;;102.25;30.95;;;5.10;99.90;;;;;;4844200;29;20504;-89
2021/12/04 01:28:05;;;;;;;121.20;32.42;;;5.00;99.90;;;;;;4843056;29;20132;-89
2021/12/04 01:30:32;;;;;;;107.05;32.03;;;5.00;99.90;;;;;;4843112;29;20053;-89
2021/12/04 01:32:57;;;;;;;111.43;31.15;;;5.00;99.90;;;;;;4842750;29;20085;-89
2021/12/04 01:35:23;;;;;;;121.15;33.30;;;5.00;99.90;;;;;;4842941;29;20050;-90
2021/12/04 01:37:49;;;;;;;127.78;34.45;;;5.00;99.90;;;;;;4843111;29;20065;-90
2021/12/04 01:40:14;;;;;;;130.82;33.00;;;5.00;99.90;;;;;;4842644;29;20391;-90
2021/12/04 01:42:40;;;;;;;125.43;31.75;;;5.00;99.90;;;;;;4842451;29;20088;-90
2021/12/04 01:45:07;;;;;;;128.05;33.05;;;5.00;99.90;;;;;;4842581;29;20394;-90
2021/12/04 01:47:33;;;;;;;115.22;30.88;;;4.90;99.90;;;;;;4842233;29;20078;-90
2021/12/04 01:50:01;;;;;;;133.93;34.90;;;4.90;99.90;;;;;;4842606;29;20054;-90
2021/12/04 01:52:27;;;;;;;122.78;31.83;;;5.00;99.90;;;;;;4842838;29;20525;-90
2021/12/04 01:54:53;;;;;;;126.63;32.17;;;5.00;99.90;;;;;;4842837;29;20046;-90
2021/12/04 01:57:21;;;;;;;133.02;33.50;;;4.90;99.90;;;;;;4842777;29;20383;-90
2021/12/04 01:59:47;;;;;;;114.20;29.85;;;4.90;99.90;;;;;;4842695;29;20069;-91
2021/12/04 02:02:13;;;;;;;119.32;32.28;;;5.00;99.90;;;;;;4842322;29;20046;-90
2021/12/04 02:04:39;;;;;;;142.82;33.45;;;5.00;99.90;;;;;;4842326;29;20050;-89
2021/12/04 02:07:05;;;;;;;116.82;31.02;;;4.90;99.90;;;;;;4842678;29;20045;-90
2021/12/04 02:09:35;;;;;;;115.93;31.30;;;4.90;99.90;;;;;;4842285;29;20053;-91
2021/12/04 02:12:05;;;;;;;127.82;31.55;;;4.90;99.90;;;;;;4842184;29;20125;-90
2021/12/04 02:14:39;;;;;;;118.55;33.03;;;4.90;99.90;;;;;;4842181;29;20054;-91
2021/12/04 02:17:05;;;;;;;126.22;32.75;;;4.90;99.90;;;;;;4842220;29;20125;-90
2021/12/04 02:19:31;;;;;;;120.50;32.17;;;4.90;99.90;;;;;;4842434;29;20125;-90
2021/12/04 02:21:57;;;;;;;117.68;30.90;;;4.90;99.90;;;;;;4842078;29;20394;-91
2021/12/04 02:24:23;;;;;;;114.85;30.30;;;4.80;99.90;;;;;;4842087;29;20058;-91
2021/12/04 02:26:50;;;;;;;134.40;31.08;;;4.90;99.90;;;;;;4841912;29;20049;-90
2021/12/04 02:29:16;;;;;;;142.60;30.98;;;4.80;99.90;;;;;;4841926;29;20054;-90
2021/12/04 02:31:49;;;;;;;105.05;27.40;;;4.80;99.90;;;;;;4841864;29;20048;-90
2021/12/04 02:34:28;;;;;;;126.03;30.27;;;4.80;99.90;;;;;;4841977;29;20053;-90
2021/12/04 02:36:55;;;;;;;129.95;30.65;;;4.80;99.90;;;;;;4841983;29;20129;-90
2021/12/04 02:39:44;;;;;;;108.90;28.92;;;4.80;99.90;;;;;;4841927;29;20049;-90
2021/12/04 02:42:20;;;;;;;113.88;29.65;;;4.80;99.90;;;;;;4841857;29;20053;-90
2021/12/04 02:44:46;;;;;;;123.35;29.77;;;4.80;99.90;;;;;;4841911;29;20516;-90
2021/12/04 02:47:12;;;;;;;137.90;30.88;;;4.70;99.90;;;;;;4841552;29;20570;-90
2021/12/04 02:49:37;;;;;;;132.00;30.65;;;4.80;99.90;;;;;;4826649;29;20061;-89
2021/12/04 02:52:05;;;;;;;131.77;31.23;;;4.80;99.90;;;;;;4826339;29;20182;-90
2021/12/04 02:54:32;;;;;;;110.00;27.63;;;4.80;99.90;;;;;;4826602;29;20511;-90
2021/12/04 02:56:58;;;;;;;103.45;28.00;;;4.70;99.90;;;;;;4826615;29;20499;-90
2021/12/04 02:59:25;;;;;;;121.22;29.27;;;4.70;99.90;;;;;;4826586;29;20057;-89
2021/12/04 03:01:53;;;;;;;127.05;28.80;;;4.70;99.90;;;;;;4842787;29;20054;-89
2021/12/04 03:04:21;;;;;;;125.75;28.08;;;4.70;99.90;;;;;;4826370;29;20053;-89
2021/12/04 03:06:47;;;;;;;123.90;28.98;;;4.70;99.90;;;;;;4826424;29;20496;-89
2021/12/04 03:09:14;;;;;;;124.28;29.33;;;4.70;99.90;;;;;;4826331;29;20138;-89
2021/12/04 03:11:40;;;;;;;119.47;28.38;;;4.70;99.90;;;;;;4826598;29;20054;-90
2021/12/04 03:14:07;;;;;;;119.40;27.25;;;4.70;99.90;;;;;;4826789;29;20054;-90
2021/12/04 03:16:33;;;;;;;117.38;28.50;;;4.70;99.90;;;;;;4827221;29;20049;-93
2021/12/04 03:18:59;;;;;;;116.00;26.42;;;4.70;99.90;;;;;;4826039;29;20501;-89
2021/12/04 03:21:25;;;;;;;150.57;31.27;;;4.70;99.90;;;;;;4826472;29;20057;-90
2021/12/04 03:24:04;;;;;;;133.07;28.48;;;4.70;99.90;;;;;;4826297;29;20500;-88
2021/12/04 03:26:31;;;;;;;113.22;26.98;;;4.60;99.90;;;;;;4826409;29;20054;-89
2021/12/04 03:29:00;;;;;;;119.05;24.40;;;4.60;99.90;;;;;;4826301;29;20054;-89
2021/12/04 03:32:07;;;;;;;136.75;28.40;;;4.70;99.90;;;;;;4826318;29;20058;-89
2021/12/04 03:42:44;;;;;;;116.45;25.08;;;4.60;99.90;;;;;;4807283;29;20061;-88
2021/12/04 03:45:10;;;;;;;107.32;24.48;;;4.60;99.90;;;;;;4807159;29;20491;-88
2021/12/04 03:47:40;;;;;;;122.07;27.98;;;4.60;99.90;;;;;;4817018;29;20078;-88
2021/12/04 03:50:07;;;;;;;143.20;29.40;;;4.60;99.90;;;;;;4842795;29;20054;-89
2021/12/04 03:52:33;;;;;;;117.88;26.33;;;4.60;99.90;;;;;;4841072;29;20124;-89
2021/12/04 03:54:59;;;;;;;126.90;29.10;;;4.60;99.90;;;;;;4841426;29;20145;-89
2021/12/04 03:57:24;;;;;;;129.43;28.17;;;4.60;99.90;;;;;;4841175;29;20391;-88
2021/12/04 03:59:50;;;;;;;134.57;27.63;;;4.60;99.90;;;;;;4841095;29;20050;-88
2021/12/04 04:02:17;;;;;;;151.90;31.05;;;4.60;99.90;;;;;;4841188;29;20060;-88
2021/12/04 04:04:43;;;;;;;146.30;29.85;;;4.60;99.90;;;;;;4842138;29;20078;-88
2021/12/04 04:07:09;;;;;;;111.50;26.50;;;4.60;99.90;;;;;;4844309;29;20046;-88
2021/12/04 04:09:35;;;;;;;142.30;29.38;;;4.60;99.90;;;;;;4844585;29;20042;-88
2021/12/04 04:12:02;;;;;;;126.05;27.15;;;4.60;99.90;;;;;;4844455;29;20057;-88
2021/12/04 04:14:27;;;;;;;142.27;30.30;;;4.60;99.90;;;;;;4844337;29;20050;-89
2021/12/04 04:16:55;;;;;;;136.02;29.50;;;4.60;99.90;;;;;;4844199;29;20089;-88
2021/12/04 04:19:23;;;;;;;130.85;27.65;;;4.60;99.90;;;;;;4844350;29;20178;-89
2021/12/04 04:21:55;;;;;;;108.40;26.77;;;4.60;99.90;;;;;;4844118;29;20053;-88
2021/12/04 04:24:21;;;;;;;122.13;27.13;;;4.60;99.90;;;;;;4844403;29;20110;-89
2021/12/04 04:26:46;;;;;;;121.55;26.70;;;4.60;99.90;;;;;;4844136;29;20424;-89
2021/12/04 04:29:13;;;;;;;121.60;26.85;;;4.60;99.90;;;;;;4844109;29;20054;-88
2021/12/04 04:31:46;;;;;;;132.85;26.73;;;4.60;99.90;;;;;;4845051;29;20046;-89
2021/12/04 04:34:24;;;;;;;107.75;26.02;;;4.60;99.90;;;;;;4845291;29;20050;-89
2021/12/04 05:12:01;;;;;;;109.47;23.30;;;4.60;99.90;;;;;;4843313;29;20056;-89
2021/12/04 05:14:26;;;;;;;101.72;22.77;;;4.60;99.90;;;;;;4843215;29;20062;-89
2021/12/04 05:16:59;;;;;;;102.30;23.25;;;4.60;99.90;;;;;;4843012;29;20052;-87
2021/12/04 05:19:46;;;;;;;90.45;23.42;;;4.60;99.90;;;;;;4843275;29;20095;-89
2021/12/04 05:22:14;;;;;;;97.72;23.23;;;4.60;99.90;;;;;;4843218;29;20402;-89
2021/12/04 05:24:41;;;;;;;98.30;22.95;;;4.60;99.90;;;;;;4843122;29;20054;-89
2021/12/04 05:27:08;;;;;;;99.80;22.95;;;4.60;99.90;;;;;;4842937;29;20583;-89
2021/12/04 05:29:34;;;;;;;93.10;21.70;;;4.60;99.90;;;;;;4843834;29;20054;-91
2021/12/04 05:32:00;;;;;;;108.63;24.23;;;4.60;99.90;;;;;;4842715;29;20056;-88
2021/12/04 05:34:26;;;;;;;90.63;21.35;;;4.60;99.90;;;;;;4842813;29;20054;-89
2021/12/04 05:36:52;;;;;;;94.78;23.50;;;4.60;99.90;;;;;;4842717;29;20053;-88
2021/12/04 05:39:17;;;;;;;79.15;21.25;;;4.60;99.90;;;;;;4842833;29;20050;-88
2021/12/04 05:41:43;;;;;;;82.13;22.38;;;4.60;99.90;;;;;;4843003;29;20054;-89
2021/12/04 05:44:10;;;;;;;106.60;23.45;;;4.60;99.90;;;;;;4844019;29;20056;-88
2021/12/04 05:46:54;;;;;;;87.15;21.65;;;4.60;99.90;;;;;;4843998;29;20054;-88
2021/12/04 05:49:28;;;;;;;88.45;19.02;;;4.60;99.90;;;;;;4842458;29;20468;-88
2021/12/04 05:54:33;;;;;;;87.00;21.65;;;4.60;99.90;;;;;;4842601;29;20093;-88
2021/12/04 05:56:59;;;;;;;88.18;22.67;;;4.60;99.90;;;;;;4842812;29;20062;-88
2021/12/04 05:59:26;;;;;;;89.90;22.70;;;4.60;99.90;;;;;;4842322;29;20395;-89
2021/12/04 06:01:52;;;;;;;73.18;19.08;;;4.60;99.90;;;;;;4842627;29;20052;-89
2021/12/04 06:04:17;;;;;;;93.03;21.10;;;4.60;99.90;;;;;;4842492;29;20054;-88
2021/12/04 06:06:44;;;;;;;85.63;21.58;;;4.60;99.90;;;;;;4842511;29;20060;-89
2021/12/04 06:09:10;;;;;;;81.45;19.95;;;4.60;99.90;;;;;;4842570;29;20065;-88
2021/12/04 06:11:36;;;;;;;81.75;21.15;;;4.60;99.90;;;;;;4842546;29;20058;-88
2021/12/04 06:14:03;;;;;;;84.38;20.48;;;4.60;99.90;;;;;;4842109;29;20078;-89
2021/12/04 06:16:29;;;;;;;80.18;20.38;;;4.60;99.90;;;;;;4842091;29;20054;-90
2021/12/04 06:18:55;;;;;;;82.90;20.33;;;4.60;99.90;;;;;;4842170;29;20058;-90
2021/12/04 06:24:06;;;;;;;78.57;19.48;;;4.60;99.90;;;;;;4842357;29;20081;-89
2021/12/04 06:26:33;;;;;;;93.88;20.15;;;4.60;99.90;;;;;;4842104;29;20523;-89
2021/12/04 06:28:59;;;;;;;88.05;21.38;;;4.60;99.90;;;;;;4841917;29;20498;-90
2021/12/04 06:31:26;;;;;;;101.05;22.77;;;4.60;99.90;;;;;;4842256;29;20459;-90
2021/12/04 06:33:52;;;;;;;90.32;21.40;;;4.50;99.90;;;;;;4841965;29;20097;-89
2021/12/04 06:36:18;;;;;;;85.13;21.08;;;4.60;99.90;;;;;;4841850;29;20125;-90
2021/12/04 06:38:44;;;;;;;84.80;21.08;;;4.50;99.90;;;;;;4841796;29;20129;-90
2021/12/04 06:41:10;;;;;;;85.78;21.95;;;4.50;99.90;;;;;;4842252;29;20089;-89
2021/12/04 06:43:37;;;;;;;80.95;20.52;;;4.60;99.90;;;;;;4842007;29;20463;-89
2021/12/04 06:46:05;;;;;;;94.43;23.02;;;4.60;99.90;;;;;;4841838;29;20050;-90
2021/12/04 06:49:00;;;;;;;88.60;21.85;;;4.60;99.90;;;;;;4841566;29;20062;-89
2021/12/04 06:54:02;;;;;;;90.63;22.23;;;4.60;99.90;;;;;;4842404;29;20502;-89
2021/12/04 06:56:33;;;;;;;93.15;21.38;;;4.60;99.90;;;;;;4842026;29;20106;-90
2021/12/04 06:59:05;;;;;;;93.75;20.33;;;4.60;99.90;;;;;;4842055;29;20061;-89
2021/12/04 07:01:30;;;;;;;92.53;21.23;;;4.60;99.90;;;;;;4842080;29;20054;-90
2021/12/04 07:03:56;;;;;;;89.90;22.63;;;4.60;99.90;;;;;;4841567;29;20406;-90
2021/12/04 07:06:22;;;;;;;95.97;20.77;;;4.60;99.90;;;;;;4841570;29;20058;-90
2021/12/04 07:08:47;;;;;;;93.22;21.45;;;4.50;99.90;;;;;;4826535;29;20088;-90
2021/12/04 07:11:13;;;;;;;93.82;19.77;;;4.60;99.90;;;;;;4841599;29;20054;-90
2021/12/04 07:13:39;;;;;;;90.07;22.20;;;4.50;99.90;;;;;;4841536;29;20090;-89
2021/12/04 07:16:06;;;;;;;108.18;22.13;;;4.60;99.90;;;;;;4841624;29;20050;-89
2021/12/04 07:18:34;;;;;;;81.75;19.25;;;4.60;99.90;;;;;;4841591;29;20423;-89
2021/12/04 07:21:00;;;;;;;95.38;20.83;;;4.60;99.90;;;;;;4841494;29;20054;-89
2021/12/04 07:23:26;;;;;;;91.60;21.13;;;4.60;99.90;;;;;;4841466;29;20380;-89
2021/12/04 07:25:52;;;;;;;92.95;19.63;;;4.60;99.90;;;;;;4842615;29;20050;-88
2021/12/04 07:28:18;;;;;;;91.07;19.73;;;4.60;99.90;;;;;;4841186;29;20098;-88
2021/12/04 07:30:43;;;;;;;107.43;22.33;;;4.60;99.90;;;;;;4842296;29;20085;-89
2021/12/04 07:33:10;;;;;;;109.05;21.70;;;4.60;99.90;;;;;;4840746;29;20450;-89
2021/12/04 07:35:35;;;;;;;107.70;21.85;;;4.60;99.90;;;;;;4841246;29;20034;-88
2021/12/04 07:38:01;;;;;;;103.25;22.38;;;4.50;99.90;;;;;;4840888;29;20075;-89
2021/12/04 07:40:27;;;;;;;91.82;21.08;;;4.50;99.90;;;;;;4842835;29;20056;-89
2021/12/04 07:42:53;;;;;;;90.72;19.98;;;4.60;99.90;;;;;;4843603;29;20136;-88
2021/12/04 07:45:19;;;;;;;109.35;21.33;;;4.50;99.90;;;;;;4844309;29;20058;-89
2021/12/04 07:47:45;;;;;;;117.70;21.52;;;4.50;99.90;;;;;;4844468;29;20122;-90
2021/12/04 07:50:11;;;;;;;98.03;20.48;;;4.60;99.90;;;;;;4844530;29;20557;-90
2021/12/04 07:52:38;;;;;;;90.07;19.55;;;4.50;99.90;;;;;;4844342;29;20106;-90
2021/12/04 07:55:06;;;;;;;112.25;21.70;;;4.50;99.90;;;;;;4844690;29;20395;-89
2021/12/04 07:57:31;;;;;;;83.88;20.17;;;4.50;99.90;;;;;;4844573;29;20125;-87
2021/12/04 07:59:57;;;;;;;105.88;22.58;;;4.60;99.90;;;;;;4844390;29;20141;-87
2021/12/04 08:02:23;;;;;;;97.82;20.13;;;4.50;99.90;;;;;;4844633;29;20064;-87
2021/12/04 08:04:49;;;;;;;99.45;21.35;;;4.60;99.90;;;;;;4844422;29;20058;-87
2021/12/04 08:07:14;;;;;;;94.10;20.42;;;4.50;99.90;;;;;;4844433;29;20065;-87
2021/12/04 08:09:40;;;;;;;117.85;22.25;;;4.50;99.90;;;;;;4844183;29;20100;-87
2021/12/04 08:12:07;;;;;;;102.32;20.90;;;4.60;99.90;;;;;;4843961;29;20054;-87
2021/12/04 08:14:32;;;;;;;103.15;22.35;;;4.60;99.90;;;;;;4844103;29;20418;-88
2021/12/04 08:16:58;;;;;;;94.78;20.48;;;4.50;99.90;;;;;;4844058;29;20487;-87
2021/12/04 08:19:24;;;;;;;122.80;24.38;;;4.60;99.90;;;;;;4844009;29;20128;-85
2021/12/04 08:21:50;;;;;;;96.57;22.27;;;4.50;99.90;;;;;;4844255;29;20046;-86
2021/12/04 08:24:15;;;;;;;77.47;17.27;;;4.60;99.90;;;;;;4844160;29;20061;-86
2021/12/04 08:26:41;;;;;;;80.10;18.80;;;4.60;99.90;;;;;;4844135;29;20050;-88
2021/12/04 08:29:07;;;;;;;95.10;19.67;;;4.60;99.90;;;;;;4844125;29;20054;-87
2021/12/04 08:31:34;;;;;;;94.85;21.08;;;4.50;99.90;;;;;;4843708;29;20053;-86
2021/12/04 08:34:00;;;;;;;117.30;24.02;;;4.50;99.90;;;;;;4840674;29;20128;-85
2021/12/04 08:36:25;;;;;;;95.05;21.40;;;4.50;99.90;;;;;;4833328;29;20129;-88
2021/12/04 08:38:51;;;;;;;100.60;20.30;;;4.60;99.90;;;;;;4825591;29;20058;-93
2021/12/04 08:41:18;;;;;;;96.78;21.15;;;4.60;99.90;;;;;;4825218;29;20449;-89
2021/12/04 08:43:44;;;;;;;96.82;22.13;;;4.60;99.90;;;;;;4825106;29;20144;-88
2021/12/04 08:46:10;;;;;;;96.30;21.20;;;4.60;99.90;;;;;;4825260;29;20083;-88
2021/12/04 08:48:36;;;;;;;79.28;18.50;;;4.60;99.90;;;;;;4824810;29;20455;-91
2021/12/04 08:51:03;;;;;;;91.50;20.38;;;4.60;99.90;;;;;;4824482;29;20494;-86
2021/12/04 08:53:30;;;;;;;72.18;17.45;;;4.60;99.90;;;;;;4824878;29;20483;-90
2021/12/04 08:55:56;;;;;;;74.70;16.33;;;4.60;99.90;;;;;;4824807;29;20049;-86
2021/12/04 08:58:22;;;;;;;74.57;18.75;;;4.70;99.90;;;;;;4824876;29;20046;-86
2021/12/04 09:00:55;;;;;;;69.50;17.20;;;4.70;99.90;;;;;;4826256;29;20117;-86
2021/12/04 09:03:26;;;;;;;73.82;18.50;;;4.70;99.90;;;;;;4825064;29;20130;-87
2021/12/04 09:05:52;;;;;;;79.05;18.98;;;4.60;99.90;;;;;;4826305;29;20114;-86
2021/12/04 09:08:20;;;;;;;77.95;18.95;;;4.60;99.90;;;;;;4826105;29;20061;-86
2021/12/04 09:10:47;;;;;;;82.53;20.30;;;4.60;99.90;;;;;;4824950;29;20515;-89
2021/12/04 09:13:14;;;;;;;78.72;19.23;;;4.60;99.90;;;;;;4824601;29;20391;-88
2021/12/04 09:15:40;;;;;;;78.95;17.60;;;4.60;99.90;;;;;;4824559;29;20141;-86
2021/12/04 09:18:06;;;;;;;85.60;21.73;;;4.70;99.90;;;;;;4824915;29;20064;-88
2021/12/04 09:20:32;;;;;;;72.70;18.50;;;4.70;99.90;;;;;;4824787;29;20070;-88
2021/12/04 09:22:59;;;;;;;68.57;17.10;;;4.70;99.90;;;;;;4824447;29;20411;-86
2021/12/04 09:25:26;;;;;;;76.55;16.58;;;4.70;99.90;;;;;;4824445;29;20402;-90
2021/12/04 09:28:17;;;;;;;84.10;19.67;;;4.70;99.90;;;;;;4824280;29;20062;-90
2021/12/04 10:33:28;;;;;;;70.80;20.85;;;4.80;99.90;;;;;;4841467;29;20093;-91
2021/12/04 10:35:54;;;;;;;57.75;17.10;;;4.80;99.90;;;;;;4841057;29;20080;-91
2021/12/04 10:38:26;;;;;;;69.20;18.33;;;4.80;99.90;;;;;;4840824;29;20057;-90
2021/12/04 10:40:54;;;;;;;53.83;16.63;;;4.80;99.90;;;;;;4840720;29;20134;-91
2021/12/04 10:43:27;;;;;;;55.60;17.00;;;4.80;99.90;;;;;;4841134;29;20058;-90
2021/12/04 10:45:56;;;;;;;55.45;16.38;;;4.80;99.90;;;;;;4841298;29;20094;-90
2021/12/04 10:48:26;;;;;;;54.55;16.23;;;4.80;99.90;;;;;;4840854;29;20113;-91
2021/12/04 10:53:33;;;;;;;61.78;17.33;;;4.80;99.90;;;;;;4841092;29;20090;-92
2021/12/04 11:04:13;;;;;;;52.92;15.15;;;4.80;99.90;;;;;;4841202;29;20411;-87
2021/12/04 11:21:38;;;;;;;43.55;14.20;;;4.80;99.90;;;;;;4844996;29;20114;-88
2021/12/04 11:24:41;;;;;;;42.00;14.75;;;4.80;99.90;;;;;;4844807;29;20065;-88
2021/12/04 11:43:27;;;;;;;32.60;11.73;;;4.80;99.90;;;;;;4844554;29;20093;-87
2021/12/04 11:48:31;;;;;;;35.75;14.15;;;4.90;99.90;;;;;;4844220;29;20137;-87
2021/12/04 11:50:58;;;;;;;34.58;13.05;;;4.90;99.90;;;;;;4844478;29;20045;-88
2021/12/04 11:53:25;;;;;;;32.85;11.23;;;4.90;99.90;;;;;;4844369;29;20083;-87
2021/12/04 11:55:51;;;;;;;34.22;13.02;;;4.90;99.90;;;;;;4844593;29;20058;-88
2021/12/04 11:58:21;;;;;;;29.95;13.07;;;4.90;99.90;;;;;;4844239;29;20050;-87
2021/12/04 12:00:48;;;;;;;34.63;11.30;;;4.90;99.90;;;;;;4845412;29;20465;-88
2021/12/04 12:03:20;;;;;;;30.77;12.05;;;4.90;99.90;;;;;;4844295;29;20076;-88
2021/12/04 12:05:56;;;;;;;30.73;12.32;;;4.90;99.90;;;;;;4844368;29;20057;-87
2021/12/04 12:08:33;;;;;;;33.97;12.15;;;4.90;99.90;;;;;;4844095;29;20050;-88
2021/12/04 12:11:00;;;;;;;31.23;12.55;;;4.90;99.90;;;;;;4843949;29;20133;-89
2021/12/04 12:13:49;;;;;;;31.15;11.77;;;4.90;99.90;;;;;;4843534;29;20046;-87
2021/12/04 12:16:21;;;;;;;30.02;11.95;;;4.90;99.90;;;;;;4844076;29;20046;-87
2021/12/04 12:18:54;;;;;;;35.17;13.02;;;4.90;99.90;;;;;;4843888;29;20065;-86
2021/12/04 12:21:31;;;;;;;27.65;12.07;;;4.90;99.90;;;;;;4844153;29;20060;-88
2021/12/04 12:38:35;;;;;;;30.95;11.63;;;4.90;99.90;;;;;;4843452;29;20061;-90
2021/12/04 12:41:11;;;;;;;33.20;12.40;;;5.00;99.90;;;;;;4843002;29;20522;-89
2021/12/04 12:43:44;;;;;;;29.48;11.48;;;5.00;99.90;;;;;;4842721;29;20057;-88
2021/12/04 12:46:11;;;;;;;33.53;12.70;;;5.00;99.90;;;;;;4843112;29;20494;-88
2021/12/04 12:48:53;;;;;;;33.42;13.15;;;5.00;99.90;;;;;;4844030;29;20135;-81
2021/12/04 12:51:30;;;;;;;36.45;13.20;;;5.00;99.90;;;;;;4827039;29;20050;-84
2021/12/04 12:53:58;;;;;;;39.80;14.38;;;5.10;99.90;;;;;;4827939;29;20082;-84
2021/12/04 12:56:27;;;;;;;37.88;14.20;;;5.10;99.90;;;;;;4828247;29;20125;-83
2021/12/04 12:58:56;;;;;;;35.92;13.27;;;5.10;99.90;;;;;;4827257;29;20121;-84
2021/12/04 13:13:27;;;;;;;32.83;13.65;;;5.10;99.90;;;;;;4836913;29;20065;-84
2021/12/04 13:15:59;;;;;;;40.40;14.77;;;5.10;99.90;;;;;;4827650;29;20458;-84
2021/12/04 13:18:26;;;;;;;35.50;13.50;;;5.10;99.90;;;;;;4827594;29;20050;-84
2021/12/04 13:20:53;;;;;;;31.05;12.35;;;5.20;99.90;;;;;;4827534;29;20048;-84
2021/12/04 13:23:22;;;;;;;32.95;12.32;;;5.10;99.90;;;;;;4827511;29;20058;-84
2021/12/04 13:25:50;;;;;;;36.30;13.80;;;5.10;99.90;;;;;;4827535;29;20054;-84
2021/12/04 13:28:21;;;;;;;30.45;12.10;;;5.10;99.90;;;;;;4827424;29;20049;-84
2021/12/04 13:30:47;;;;;;;42.33;14.75;;;5.10;99.90;;;;;;4827367;29;20406;-84
2021/12/04 13:33:13;;;;;;;34.70;13.23;;;5.10;99.90;;;;;;4826852;29;20506;-84
2021/12/04 13:35:44;;;;;;;43.25;13.30;;;5.10;99.90;;;;;;4829312;29;20049;-84
2021/12/04 13:38:11;;;;;;;39.90;14.38;;;5.10;99.90;;;;;;4828880;29;20146;-84
2021/12/04 13:40:39;;;;;;;38.35;14.00;;;5.10;99.90;;;;;;4827226;29;20133;-85
2021/12/04 13:43:13;;;;;;;43.90;14.10;;;5.10;99.90;;;;;;4826622;29;20050;-84
2021/12/04 13:45:39;;;;;;;34.88;14.00;;;5.10;99.90;;;;;;4827005;29;20050;-84
2021/12/04 13:48:07;;;;;;;38.60;14.80;;;5.10;99.90;;;;;;4831742;29;20054;-84
2021/12/04 13:53:21;;;;;;;39.58;15.50;;;5.10;99.90;;;;;;4842119;29;20058;-84
2021/12/04 13:56:19;;;;;;;39.53;14.27;;;5.10;99.90;;;;;;4842118;29;20061;-84
2021/12/04 13:58:47;;;;;;;44.58;14.43;;;5.10;99.90;;;;;;4840329;29;20061;-84
2021/12/04 14:01:13;;;;;;;46.72;16.02;;;5.10;99.90;;;;;;4842260;29;20050;-84
2021/12/04 14:03:39;;;;;;;42.63;14.13;;;5.10;99.90;;;;;;4841376;29;20050;-84
2021/12/04 14:06:15;;;;;;;46.05;15.93;;;5.10;99.90;;;;;;4841876;29;20046;-84
2021/12/04 14:08:43;;;;;;;47.40;14.25;;;5.10;99.90;;;;;;4841986;29;20045;-84
2021/12/04 14:11:09;;;;;;;47.05;16.45;;;5.10;99.90;;;;;;4841873;29;20050;-84
2021/12/04 14:13:38;;;;;;;49.50;16.25;;;5.10;99.90;;;;;;4841240;29;20054;-84
2021/12/04 14:16:05;;;;;;;48.78;17.33;;;5.10;99.90;;;;;;4841960;29;20455;-84
2021/12/04 14:18:31;;;;;;;48.42;16.88;;;5.10;99.90;;;;;;4842083;29;20538;-84
2021/12/04 14:21:02;;;;;;;46.80;17.48;;;5.10;99.90;;;;;;4842948;29;20125;-84
2021/12/04 14:23:30;;;;;;;51.33;18.10;;;5.10;99.90;;;;;;4841993;29;20045;-84
2021/12/04 14:25:56;;;;;;;51.45;18.00;;;5.10;99.90;;;;;;4841675;29;20046;-84
2021/12/04 14:28:30;;;;;;;57.08;18.88;;;5.10;99.90;;;;;;4841576;29;20481;-84
2021/12/04 14:30:56;;;;;;;44.70;16.10;;;5.10;99.90;;;;;;4841747;29;20078;-84
2021/12/04 14:33:25;;;;;;;38.63;15.27;;;5.10;99.90;;;;;;4841073;29;20050;-84
2021/12/04 14:35:52;;;;;;;37.92;12.35;;;5.10;99.90;;;;;;4841753;29;20133;-84
2021/12/04 14:38:21;;;;;;;45.97;16.35;;;5.10;99.90;;;;;;4841733;29;20053;-84
2021/12/04 14:40:53;;;;;;;41.85;14.73;;;5.10;99.90;;;;;;4841678;29;20050;-84
2021/12/04 14:43:22;;;;;;;52.10;17.90;;;5.10;99.90;;;;;;4841001;29;20054;-84
2021/12/04 14:45:51;;;;;;;48.35;15.90;;;5.10;99.90;;;;;;4841410;29;20558;-84
2021/12/04 14:48:34;;;;;;;42.90;15.70;;;5.10;99.90;;;;;;4840781;29;20073;-84
2021/12/04 14:51:05;;;;;;;45.13;16.00;;;5.10;99.90;;;;;;4841756;29;20057;-84
2021/12/04 14:53:34;;;;;;;51.70;17.38;;;5.10;99.90;;;;;;4841323;29;20050;-84
2021/12/04 14:56:05;;;;;;;54.13;17.73;;;5.10;99.90;;;;;;4842815;29;20041;-83
2021/12/04 14:58:30;;;;;;;48.47;16.33;;;5.10;99.90;;;;;;4842381;29;20113;-83
2021/12/04 15:00:59;;;;;;;73.20;25.85;;;5.10;99.90;;;;;;4841459;29;20446;-84
2021/12/04 15:03:34;;;;;;;43.85;14.65;;;5.10;99.90;;;;;;4841076;29;20058;-84
2021/12/04 15:06:03;;;;;;;45.78;16.02;;;5.10;99.90;;;;;;4841245;29;20138;-84
2021/12/04 15:08:35;;;;;;;46.03;14.50;;;5.10;99.90;;;;;;4841189;29;20061;-84
2021/12/04 15:11:10;;;;;;;41.97;16.08;;;5.10;99.90;;;;;;4841149;29;20546;-84
2021/12/04 15:13:46;;;;;;;40.08;14.35;;;5.10;99.90;;;;;;4841316;29;20069;-84
2021/12/04 15:16:17;;;;;;;41.80;14.68;;;5.00;99.90;;;;;;4841801;29;20069;-83
2021/12/04 15:18:42;;;;;;;38.40;14.43;;;5.10;99.90;;;;;;4841541;29;20104;-83
2021/12/04 15:21:15;;;;;;;47.45;15.20;;;5.10;99.90;;;;;;4841540;29;20054;-83
2021/12/04 15:23:52;;;;;;;43.92;15.38;;;5.10;99.90;;;;;;4841535;29;20078;-83
2021/12/04 15:26:20;;;;;;;46.13;13.35;;;5.00;99.90;;;;;;4841579;29;20056;-83
2021/12/04 15:28:49;;;;;;;43.60;14.95;;;5.00;99.90;;;;;;4841244;29;20046;-84
2021/12/04 15:31:18;;;;;;;43.42;14.35;;;5.10;99.90;;;;;;4841315;29;20046;-84
2021/12/04 15:33:50;;;;;;;48.03;15.55;;;5.00;99.90;;;;;;4840711;29;20495;-85
2021/12/04 15:36:26;;;;;;;45.13;15.30;;;5.00;99.90;;;;;;4833564;29;20402;-84
2021/12/04 15:38:55;;;;;;;48.00;14.38;;;5.10;99.90;;;;;;4841479;29;20136;-84
2021/12/04 15:41:41;;;;;;;45.88;15.52;;;5.00;99.90;;;;;;4841126;29;20380;-83
2021/12/04 15:54:25;;;;;;;51.67;15.30;;;5.00;99.90;;;;;;4841286;29;20126;-83
2021/12/04 15:56:54;;;;;;;54.25;17.17;;;5.00;99.90;;;;;;4841519;29;20054;-83
2021/12/04 15:59:28;;;;;;;49.72;16.10;;;5.00;99.90;;;;;;4841112;29;20081;-83
2021/12/04 16:01:57;;;;;;;58.60;16.38;;;5.00;99.90;;;;;;4844261;29;20049;-84
2021/12/04 16:04:29;;;;;;;48.65;16.02;;;5.00;99.90;;;;;;4843985;29;20050;-84
2021/12/04 16:06:56;;;;;;;58.47;15.80;;;5.00;99.90;;;;;;4837123;29;20061;-84
2021/12/04 16:09:27;;;;;;;56.88;17.63;;;5.00;99.90;;;;;;4844506;29;20049;-84
2021/12/04 16:12:09;;;;;;;58.35;16.45;;;5.00;99.90;;;;;;4844647;29;20053;-82